Arley, Alabama
Current Conditions -  °F | °C
As of 10:35 PM on Saturday 22 Nov 2014 (Local Time) from KJFX Reporting Station
Overcast Overcast  
Wind Chill: 63°   Ceiling: 2600
Heat Index: 63°   Visibility: 10mi
Dew Point: 52°   Wind: 9mph
Humidity: 68%   Direction: 130°SE
Pressure: 30.09"   Gusts: NA
Location:  34.08°N, 87.21°W
Report Text: KJFX 230435Z AUTO 13008KT 10SM OVC026 17/11 A3009 RMK A02 P-128
Loading
Personal Weather Stations






























Interactive Weather Map New forecast layout! Learn more

10-Day Weather Forecast

Advertisements
Track Severe Weather on mobile